createdAt,value
2022-12-12T00:00:20.194Z,-0.4
2022-12-12T00:01:20.460Z,-0.4
2022-12-12T00:02:20.531Z,-0.5
2022-12-12T00:03:20.771Z,-0.4
2022-12-12T00:04:20.514Z,-0.4
2022-12-12T00:05:23.993Z,-0.5
2022-12-12T00:06:20.539Z,-0.5
2022-12-12T00:07:20.613Z,-0.4
2022-12-12T00:08:26.044Z,-0.5
2022-12-12T00:09:20.775Z,-0.5
2022-12-12T00:10:20.802Z,-0.5
2022-12-12T00:11:20.877Z,-0.5
2022-12-12T00:12:25.873Z,-0.5
2022-12-12T00:13:20.970Z,-0.4
2022-12-12T00:14:21.272Z,-0.5
2022-12-12T00:15:21.029Z,-0.5
2022-12-12T00:16:21.545Z,-0.5
2022-12-12T00:17:21.356Z,-0.5
2022-12-12T00:18:23.534Z,-0.6
2022-12-12T00:19:21.295Z,-0.6
2022-12-12T00:20:21.336Z,-0.6
2022-12-12T00:21:26.637Z,-0.7
2022-12-12T00:22:26.431Z,-0.5
2022-12-12T00:23:21.487Z,-0.4
2022-12-12T00:24:21.569Z,-0.3
2022-12-12T00:25:21.683Z,-0.3
2022-12-12T00:26:26.864Z,-0.4
2022-12-12T00:27:21.993Z,-0.4
2022-12-12T00:28:21.826Z,-0.3
2022-12-12T00:29:22.596Z,-0.3
2022-12-12T00:35:23.233Z,-0.3
2022-12-12T00:36:29.459Z,-0.3
2022-12-12T00:38:27.265Z,-0.3
2022-12-12T00:39:24.529Z,-0.2
2022-12-12T00:40:22.700Z,-0.3
2022-12-12T00:41:22.488Z,-0.2
2022-12-12T00:42:22.639Z,0
2022-12-12T00:43:22.661Z,0.1
2022-12-12T00:44:22.689Z,0.1
2022-12-12T00:45:23.752Z,0.1
2022-12-12T00:46:28.312Z,0.1
2022-12-12T00:47:27.831Z,0.1
2022-12-12T00:48:22.918Z,0
2022-12-12T00:49:29.518Z,0
2022-12-12T00:50:27.988Z,-0.2
2022-12-12T00:51:29.242Z,-0.2
2022-12-12T00:52:29.492Z,-0.1
2022-12-12T00:53:57.223Z,-0.2
2022-12-12T00:55:13.956Z,-0.2
2022-12-12T00:55:23.534Z,-0.2
2022-12-12T00:56:56.662Z,-0.1
2022-12-12T00:57:23.359Z,-0.2
2022-12-12T00:59:22.544Z,-0.3
2022-12-12T01:00:56.711Z,-0.4
2022-12-12T01:01:02.080Z,-0.4
2022-12-12T01:01:26.044Z,-0.2
2022-12-12T01:02:28.047Z,-0.1
2022-12-12T01:03:45.739Z,-0.1
2022-12-12T01:07:14.665Z,0
2022-12-12T01:08:41.227Z,0.2
2022-12-12T01:08:47.619Z,0.1
2022-12-12T01:09:24.224Z,0.2
2022-12-12T01:10:27.281Z,0.3
2022-12-12T01:11:33.769Z,0.2
2022-12-12T01:12:24.278Z,0.2
2022-12-12T01:13:24.320Z,0.2
2022-12-12T01:14:24.379Z,0.2
2022-12-12T01:15:26.362Z,0.2
2022-12-12T01:16:24.494Z,0.1
2022-12-12T01:17:26.881Z,0.2
2022-12-12T01:18:24.563Z,0.2
2022-12-12T01:19:26.771Z,0.2
2022-12-12T01:20:24.704Z,0.2
2022-12-12T01:21:24.739Z,0.1
2022-12-12T01:22:24.786Z,0
2022-12-12T01:23:24.903Z,-0.1
2022-12-12T01:24:24.908Z,-0.2
2022-12-12T01:25:28.918Z,-0.3
2022-12-12T01:26:25.056Z,-0.2
2022-12-12T01:27:51.685Z,-0.1
2022-12-12T01:28:25.176Z,-0.1
2022-12-12T01:29:31.552Z,-0.1
2022-12-12T01:30:30.301Z,-0.1
2022-12-12T01:31:32.150Z,0.1
2022-12-12T01:32:25.377Z,0
2022-12-12T01:33:25.466Z,-0.1
2022-12-12T01:34:25.488Z,-0.1
2022-12-12T01:35:28.254Z,-0.2
2022-12-12T01:36:28.091Z,-0.2
2022-12-12T01:37:34.059Z,-0.2
2022-12-12T01:38:25.754Z,-0.1
2022-12-12T01:39:27.610Z,0
2022-12-12T01:40:31.079Z,0
2022-12-12T01:41:25.954Z,0
2022-12-12T01:42:27.129Z,0.1
2022-12-12T01:43:27.548Z,0.2
2022-12-12T01:44:26.380Z,0.2
2022-12-12T01:45:26.175Z,0.2
2022-12-12T01:46:27.235Z,0.2
2022-12-12T01:47:27.583Z,0.2
2022-12-12T01:48:27.170Z,0.2
2022-12-12T01:49:27.705Z,0.2
2022-12-12T01:50:26.898Z,0.2
2022-12-12T01:51:27.643Z,0.3
2022-12-12T01:52:26.672Z,0.3
2022-12-12T01:53:27.260Z,0.3
2022-12-12T01:54:34.843Z,0.3
2022-12-12T01:55:27.188Z,0.4
2022-12-12T01:56:31.854Z,0.4
2022-12-12T01:59:11.975Z,0.3
2022-12-12T02:00:26.139Z,0.3
2022-12-12T02:00:37.404Z,0.3
2022-12-12T02:01:33.239Z,0.3
2022-12-12T02:02:27.300Z,0.3
2022-12-12T02:03:32.266Z,0.2
2022-12-12T02:04:27.260Z,0.1
2022-12-12T02:05:28.358Z,0
2022-12-12T02:06:32.398Z,-0.2
2022-12-12T02:07:27.440Z,-0.2
2022-12-12T02:08:27.769Z,-0.2
2022-12-12T02:09:27.612Z,-0.2
2022-12-12T02:10:27.599Z,-0.2
2022-12-12T02:11:27.669Z,-0.2
2022-12-12T02:12:27.944Z,-0.1
2022-12-12T02:13:27.826Z,-0.1
2022-12-12T02:14:29.009Z,0.1
2022-12-12T02:15:27.916Z,0.1
2022-12-12T02:16:38.044Z,0
2022-12-12T02:17:28.035Z,-0.1
2022-12-12T02:18:28.927Z,-0.1
2022-12-12T02:19:28.112Z,0
2022-12-12T02:20:28.129Z,0
2022-12-12T02:21:28.192Z,-0.2
2022-12-12T02:22:28.338Z,-0.3
2022-12-12T02:23:28.353Z,-0.3
2022-12-12T02:24:28.349Z,-0.3
2022-12-12T02:25:28.419Z,-0.3
2022-12-12T02:26:28.485Z,-0.3
2022-12-12T02:27:28.520Z,-0.3
2022-12-12T02:28:28.622Z,-0.2
2022-12-12T02:29:28.672Z,-0.3
2022-12-12T02:30:28.702Z,-0.4
2022-12-12T02:31:28.801Z,-0.5
2022-12-12T02:32:28.893Z,-0.5
2022-12-12T02:33:28.885Z,-0.4
2022-12-12T02:34:28.960Z,-0.3
2022-12-12T02:35:28.959Z,-0.5
2022-12-12T02:36:29.043Z,-0.5
2022-12-12T02:37:29.099Z,-0.4
2022-12-12T02:38:29.204Z,-0.3
2022-12-12T02:39:29.309Z,-0.3
2022-12-12T02:40:35.323Z,-0.3
2022-12-12T02:41:29.585Z,-0.2
2022-12-12T02:42:29.358Z,-0.3
2022-12-12T02:43:30.371Z,-0.3
2022-12-12T02:44:34.546Z,-0.3
2022-12-12T02:45:31.164Z,-0.4
2022-12-12T02:46:29.665Z,-0.4
2022-12-12T02:47:29.699Z,-0.3
2022-12-12T02:48:29.739Z,-0.1
2022-12-12T02:49:29.775Z,-0.2
2022-12-12T02:50:29.829Z,-0.2
2022-12-12T02:51:29.870Z,-0.3
2022-12-12T02:52:29.919Z,-0.4
2022-12-12T02:53:30.011Z,-0.3
2022-12-12T02:54:30.018Z,-0.2
2022-12-12T02:55:33.713Z,-0.2
2022-12-12T02:56:30.149Z,-0.4
2022-12-12T02:57:30.204Z,-0.7
2022-12-12T02:58:30.507Z,-0.6
2022-12-12T02:59:30.374Z,-0.6
2022-12-12T03:00:30.448Z,-0.6
2022-12-12T03:01:30.435Z,-0.5
2022-12-12T03:02:30.497Z,-0.4
2022-12-12T03:03:30.808Z,-0.4
2022-12-12T03:04:30.656Z,-0.4
2022-12-12T03:05:30.709Z,-0.4
2022-12-12T03:06:30.789Z,-0.4
2022-12-12T03:07:37.918Z,-0.4
2022-12-12T03:08:31.851Z,-0.3
2022-12-12T03:09:31.970Z,-0.4
2022-12-12T03:10:30.972Z,-0.5
2022-12-12T03:12:21.961Z,-0.4
2022-12-12T03:14:11.320Z,-0.3
2022-12-12T03:14:16.589Z,-0.4
2022-12-12T03:14:33.762Z,-0.5
2022-12-12T03:15:32.016Z,-0.4
2022-12-12T03:16:32.917Z,-0.5
2022-12-12T03:17:28.559Z,-0.5
2022-12-12T03:20:32.172Z,-0.5
2022-12-12T03:21:02.734Z,-0.5
2022-12-12T03:21:42.012Z,-0.7
2022-12-12T03:22:35.745Z,-0.6
2022-12-12T03:23:36.660Z,-0.7
2022-12-12T03:24:38.588Z,-0.5
2022-12-12T03:25:36.798Z,-0.5
2022-12-12T03:26:40.278Z,-0.4
2022-12-12T03:27:38.406Z,-0.4
2022-12-12T03:28:37.032Z,-0.4
2022-12-12T03:29:32.412Z,-0.4
2022-12-12T03:30:40.693Z,-0.5
2022-12-12T03:31:32.520Z,-0.4
2022-12-12T03:32:35.185Z,-0.4
2022-12-12T03:33:32.419Z,-0.4
2022-12-12T03:34:33.219Z,-0.4
2022-12-12T03:36:39.021Z,-0.6
2022-12-12T03:37:37.559Z,-0.6
2022-12-12T03:38:38.801Z,-0.6
2022-12-12T03:39:37.619Z,-0.6
2022-12-12T03:41:20.328Z,-0.8
2022-12-12T03:41:38.000Z,-0.7
2022-12-12T03:42:34.258Z,-0.8
2022-12-12T03:43:32.868Z,-0.8
2022-12-12T03:44:41.567Z,-0.7
2022-12-12T03:45:33.184Z,-0.6
2022-12-12T03:46:38.543Z,-0.6
2022-12-12T03:47:33.378Z,-0.5
2022-12-12T03:48:33.921Z,-0.4
2022-12-12T03:49:43.425Z,-0.5
2022-12-12T03:50:42.465Z,-0.6
2022-12-12T03:51:44.606Z,-0.5
2022-12-12T03:52:51.737Z,-0.6
2022-12-12T03:53:46.038Z,-0.7
2022-12-12T03:54:38.648Z,-0.6
2022-12-12T03:55:33.517Z,-0.6
2022-12-12T03:56:38.484Z,-0.6
2022-12-12T03:57:38.558Z,-0.7
2022-12-12T03:58:38.617Z,-0.7
2022-12-12T03:59:33.784Z,-0.7
2022-12-12T04:00:44.569Z,-0.7
2022-12-12T04:01:38.880Z,-0.8
2022-12-12T04:02:35.483Z,-0.7
2022-12-12T04:03:34.033Z,-0.8
2022-12-12T04:04:39.726Z,-0.8
2022-12-12T04:05:34.212Z,-0.7
2022-12-12T04:06:34.243Z,-0.7
2022-12-12T04:07:34.222Z,-0.5
2022-12-12T04:08:36.104Z,-0.5
2022-12-12T04:09:34.307Z,-0.6
2022-12-12T04:10:47.289Z,-0.8
2022-12-12T04:11:34.901Z,-0.8
2022-12-12T04:12:40.206Z,-0.7
2022-12-12T04:13:34.561Z,-0.6
2022-12-12T04:14:40.981Z,-0.5
2022-12-12T04:15:39.572Z,-0.4
2022-12-12T04:16:40.123Z,-0.5
2022-12-12T04:17:36.249Z,-0.8
2022-12-12T04:18:55.653Z,-0.9
2022-12-12T04:19:34.891Z,-0.9
2022-12-12T04:20:42.312Z,-0.7
2022-12-12T04:21:40.020Z,-0.7
2022-12-12T04:22:38.408Z,-0.7
2022-12-12T04:23:35.151Z,-0.9
2022-12-12T04:24:36.740Z,-0.7
2022-12-12T04:25:35.307Z,-0.6
2022-12-12T04:26:40.287Z,-0.6
2022-12-12T04:27:40.344Z,-0.6
2022-12-12T04:28:38.210Z,-0.8
2022-12-12T04:29:35.446Z,-0.8
2022-12-12T04:31:29.869Z,-0.6
2022-12-12T04:32:41.732Z,-0.5
2022-12-12T04:32:41.878Z,-0.6
2022-12-12T04:33:36.829Z,-0.6
2022-12-12T04:34:35.783Z,-0.5
2022-12-12T04:35:38.081Z,-0.5
2022-12-12T04:36:46.110Z,-0.5
2022-12-12T04:37:48.177Z,-0.8
2022-12-12T04:38:36.507Z,-0.8
2022-12-12T04:39:40.994Z,-0.8
2022-12-12T04:40:41.311Z,-0.7
2022-12-12T04:41:40.165Z,-0.7
2022-12-12T04:42:41.394Z,-0.7
2022-12-12T04:43:40.015Z,-0.8
2022-12-12T04:44:37.523Z,-0.8
2022-12-12T04:45:36.522Z,-0.8
2022-12-12T04:46:36.578Z,-0.8
2022-12-12T04:47:36.679Z,-0.8
2022-12-12T04:48:38.392Z,-0.7
2022-12-12T04:49:36.705Z,-0.7
2022-12-12T04:50:36.654Z,-0.6
2022-12-12T04:51:37.050Z,-0.6
2022-12-12T04:52:37.058Z,-0.8
2022-12-12T04:53:37.130Z,-0.7
2022-12-12T04:54:42.047Z,-0.6
2022-12-12T04:55:43.506Z,-0.5
2022-12-12T04:56:37.509Z,-0.6
2022-12-12T04:57:38.233Z,-0.5
2022-12-12T04:58:42.192Z,-0.6
2022-12-12T04:59:37.214Z,-0.6
2022-12-12T05:00:37.551Z,-0.7
2022-12-12T05:01:51.262Z,-0.6
2022-12-12T05:02:37.401Z,-0.7
2022-12-12T05:03:39.525Z,-0.7
2022-12-12T05:04:42.447Z,-0.8
2022-12-12T05:05:38.570Z,-0.8
2022-12-12T05:06:37.702Z,-0.8
2022-12-12T05:07:40.188Z,-0.7
2022-12-12T05:08:41.178Z,-0.8
2022-12-12T05:09:42.954Z,-0.7
2022-12-12T05:10:38.464Z,-0.6
2022-12-12T05:11:38.047Z,-0.6
2022-12-12T05:12:38.350Z,-0.5
2022-12-12T05:13:38.151Z,-0.6
2022-12-12T05:14:44.610Z,-0.5
2022-12-12T05:15:43.357Z,-0.6
2022-12-12T05:16:38.588Z,-0.6
2022-12-12T05:17:39.162Z,-0.6
2022-12-12T05:18:38.481Z,-0.6
2022-12-12T05:19:42.275Z,-0.5
2022-12-12T05:20:38.610Z,-0.5
2022-12-12T05:21:38.823Z,-0.5
2022-12-12T05:22:38.809Z,-0.5
2022-12-12T05:23:39.007Z,-0.5
2022-12-12T05:24:38.880Z,-0.5
2022-12-12T05:25:39.050Z,-0.6
2022-12-12T05:26:38.958Z,-0.7
2022-12-12T05:27:39.009Z,-0.7
2022-12-12T05:28:39.034Z,-0.6
2022-12-12T05:29:49.098Z,-0.6
2022-12-12T05:30:39.168Z,-0.6
2022-12-12T05:31:40.445Z,-0.6
2022-12-12T05:32:39.247Z,-0.6
2022-12-12T05:33:39.298Z,-0.6
2022-12-12T05:34:39.335Z,-0.6
2022-12-12T05:35:39.445Z,-0.6
2022-12-12T05:36:39.508Z,-0.6
2022-12-12T05:37:59.324Z,-0.6
2022-12-12T05:38:39.580Z,-0.6
2022-12-12T05:39:44.673Z,-0.7
2022-12-12T05:40:44.699Z,-0.8
2022-12-12T05:41:39.801Z,-0.7
2022-12-12T05:42:39.866Z,-0.7
2022-12-12T05:43:45.032Z,-0.7
2022-12-12T05:44:49.968Z,-0.7
2022-12-12T05:45:40.342Z,-0.6
2022-12-12T05:46:45.053Z,-0.6
2022-12-12T05:47:40.083Z,-0.6
2022-12-12T05:48:40.115Z,-0.7
2022-12-12T05:49:40.220Z,-0.7
2022-12-12T05:50:40.257Z,-0.7
2022-12-12T05:51:40.569Z,-0.7
2022-12-12T05:52:40.542Z,-0.8
2022-12-12T05:53:43.010Z,-0.7
2022-12-12T05:54:40.482Z,-0.7
2022-12-12T05:55:40.573Z,-0.6
2022-12-12T05:56:40.597Z,-0.7
2022-12-12T05:57:40.682Z,-0.7
2022-12-12T05:58:50.742Z,-0.8
2022-12-12T05:59:40.776Z,-0.7
2022-12-12T06:00:40.842Z,-0.7
2022-12-12T06:01:45.885Z,-0.6
2022-12-12T06:02:41.031Z,-0.6
2022-12-12T06:03:41.149Z,-0.6
2022-12-12T06:04:41.032Z,-0.5
2022-12-12T06:05:41.119Z,-0.5
2022-12-12T06:06:41.563Z,-0.6
2022-12-12T06:07:46.291Z,-0.6
2022-12-12T06:08:41.362Z,-0.6
2022-12-12T06:09:41.316Z,-0.6
2022-12-12T06:10:41.334Z,-0.8
2022-12-12T06:11:41.419Z,-0.8
2022-12-12T06:12:41.549Z,-0.8
2022-12-12T06:13:41.624Z,-0.8
2022-12-12T06:14:41.636Z,-0.8
2022-12-12T06:15:41.704Z,-0.8
2022-12-12T06:16:41.678Z,-0.9
2022-12-12T06:17:41.728Z,-0.8
2022-12-12T06:18:42.885Z,-0.6
2022-12-12T06:19:41.887Z,-0.5
2022-12-12T06:20:41.898Z,-0.5
2022-12-12T06:21:49.786Z,-0.5
2022-12-12T06:22:42.520Z,-0.6
2022-12-12T06:23:43.209Z,-0.6
2022-12-12T06:24:42.149Z,-0.6
2022-12-12T06:25:42.639Z,-0.5
2022-12-12T06:26:42.552Z,-0.4
2022-12-12T06:27:45.557Z,-0.4
2022-12-12T06:28:42.423Z,-0.4
2022-12-12T06:29:42.412Z,-0.4
2022-12-12T06:30:42.837Z,-0.5
2022-12-12T06:31:43.573Z,-0.5
2022-12-12T06:32:42.616Z,-0.6
2022-12-12T06:33:47.657Z,-0.6
2022-12-12T06:34:42.664Z,-0.7
2022-12-12T06:35:42.817Z,-0.7
2022-12-12T06:36:47.763Z,-0.5
2022-12-12T06:37:42.900Z,-0.5
2022-12-12T06:38:43.012Z,-0.5
2022-12-12T06:39:43.019Z,-0.6
2022-12-12T06:40:43.005Z,-0.6
2022-12-12T06:41:43.010Z,-0.7
2022-12-12T06:42:47.858Z,-0.7
2022-12-12T06:43:43.251Z,-0.6
2022-12-12T06:44:43.260Z,-0.7
2022-12-12T06:45:43.331Z,-0.7
2022-12-12T06:46:43.522Z,-0.7
2022-12-12T06:47:43.487Z,-0.7
2022-12-12T06:48:43.535Z,-0.6
2022-12-12T06:49:43.606Z,-0.8
2022-12-12T06:50:43.939Z,-0.8
2022-12-12T06:51:43.698Z,-0.7
2022-12-12T06:52:43.798Z,-0.6
2022-12-12T06:53:43.980Z,-0.8
2022-12-12T06:54:43.975Z,-0.8
2022-12-12T06:55:43.966Z,-0.7
2022-12-12T06:56:48.147Z,-0.7
2022-12-12T06:57:44.040Z,-0.7
2022-12-12T06:58:44.092Z,-0.6
2022-12-12T06:59:44.198Z,-0.7
2022-12-12T07:00:44.255Z,-0.8
2022-12-12T07:01:44.425Z,-0.7
2022-12-12T07:02:44.387Z,-0.8
2022-12-12T07:03:44.521Z,-1
2022-12-12T07:04:44.521Z,-1
2022-12-12T07:05:44.556Z,-1.1
2022-12-12T07:06:44.619Z,-1.1
2022-12-12T07:07:44.672Z,-1.1
2022-12-12T07:08:45.199Z,-1.1
2022-12-12T07:09:44.954Z,-1
2022-12-12T07:10:45.115Z,-0.9
2022-12-12T07:11:44.920Z,-0.7
2022-12-12T07:12:47.702Z,-0.7
2022-12-12T07:13:44.931Z,-0.7
2022-12-12T07:14:44.994Z,-0.7
2022-12-12T07:15:45.107Z,-0.6
2022-12-12T07:16:45.140Z,-0.6
2022-12-12T07:17:45.202Z,-0.5
2022-12-12T07:18:45.607Z,-0.5
2022-12-12T07:19:45.456Z,-0.4
2022-12-12T07:20:45.466Z,-0.4
2022-12-12T07:21:45.399Z,-0.4
2022-12-12T07:22:45.497Z,-0.4
2022-12-12T07:23:45.825Z,-0.5
2022-12-12T07:24:45.666Z,-0.5
2022-12-12T07:25:45.670Z,-0.5
2022-12-12T07:26:45.729Z,-0.5
2022-12-12T07:27:45.798Z,-0.4
2022-12-12T07:28:45.845Z,-0.5
2022-12-12T07:29:45.838Z,-0.6
2022-12-12T07:30:45.878Z,-0.7
2022-12-12T07:31:45.927Z,-0.7
2022-12-12T07:32:46.227Z,-0.8
2022-12-12T07:33:46.090Z,-0.9
2022-12-12T07:34:46.115Z,-0.9
2022-12-12T07:35:46.145Z,-0.9
2022-12-12T07:36:46.199Z,-0.9
2022-12-12T07:37:46.253Z,-0.9
2022-12-12T07:38:46.408Z,-0.7
2022-12-12T07:39:46.320Z,-0.6
2022-12-12T07:40:46.418Z,-0.6
2022-12-12T07:41:55.430Z,-0.7
2022-12-12T07:42:46.595Z,-0.8
2022-12-12T07:43:46.553Z,-0.7
2022-12-12T07:44:46.670Z,-0.7
2022-12-12T07:45:46.723Z,-0.8
2022-12-12T07:46:46.823Z,-0.8
2022-12-12T07:47:46.807Z,-0.8
2022-12-12T07:48:46.895Z,-0.8
2022-12-12T07:49:46.901Z,-0.9
2022-12-12T07:50:48.096Z,-0.9
2022-12-12T07:51:57.028Z,-0.7
2022-12-12T07:52:47.125Z,-0.7
2022-12-12T07:53:47.181Z,-0.6
2022-12-12T07:54:47.545Z,-0.7
2022-12-12T07:55:47.277Z,-0.7
2022-12-12T07:56:47.335Z,-0.7
2022-12-12T07:58:02.964Z,-0.7
2022-12-12T07:58:47.430Z,-0.8
2022-12-12T07:59:47.523Z,-0.8
2022-12-12T08:00:47.599Z,-0.8
2022-12-12T08:01:47.767Z,-0.9
2022-12-12T08:02:48.459Z,-1.1
2022-12-12T08:03:47.875Z,-1
2022-12-12T08:05:11.418Z,-0.9
2022-12-12T08:05:47.940Z,-1
2022-12-12T08:06:48.049Z,-0.9
2022-12-12T08:07:48.069Z,-0.8
2022-12-12T08:08:48.142Z,-0.9
2022-12-12T08:09:48.217Z,-0.9
2022-12-12T08:10:48.255Z,-0.8
2022-12-12T08:11:48.760Z,-0.7
2022-12-12T08:33:36.873Z,-0.6
2022-12-12T08:34:36.432Z,-0.6
2022-12-12T08:35:34.225Z,-0.6
2022-12-12T08:36:33.307Z,-0.6
2022-12-12T08:37:43.325Z,-0.6
2022-12-12T08:38:33.506Z,-0.5
2022-12-12T08:40:09.345Z,-0.5
2022-12-12T08:41:10.068Z,-0.4
2022-12-12T08:43:01.797Z,-0.4
2022-12-12T08:43:33.761Z,-0.3
2022-12-12T08:44:33.780Z,-0.3
2022-12-12T08:45:33.868Z,-0.3
2022-12-12T08:46:33.939Z,-0.3
2022-12-12T08:47:33.927Z,-0.3
2022-12-12T08:48:34.001Z,-0.3
2022-12-12T08:49:34.055Z,-0.2
2022-12-12T08:50:35.148Z,-0.1
2022-12-12T08:51:34.170Z,-0.2
2022-12-12T08:52:34.213Z,-0.3
2022-12-12T08:53:34.241Z,-0.3
2022-12-12T08:54:35.449Z,-0.3
2022-12-12T08:55:34.332Z,-0.1
2022-12-12T08:56:34.424Z,0
2022-12-12T08:57:34.481Z,0.1
2022-12-12T08:58:34.825Z,0.2
2022-12-12T08:59:34.652Z,0.3
2022-12-12T09:00:34.710Z,0.3
2022-12-12T09:01:35.213Z,0.1
2022-12-12T09:02:34.932Z,0
2022-12-12T09:03:34.885Z,0.1
2022-12-12T09:04:34.927Z,0.3
2022-12-12T09:05:35.056Z,0.4
2022-12-12T09:06:35.570Z,0.2
2022-12-12T09:07:35.072Z,0
2022-12-12T09:08:35.108Z,0
2022-12-12T09:09:35.171Z,0.1
2022-12-12T09:10:35.260Z,0.1
2022-12-12T09:11:35.312Z,0.1
2022-12-12T09:12:39.930Z,0.1
2022-12-12T09:13:35.412Z,0.6
2022-12-12T09:14:35.527Z,0.8
2022-12-12T09:15:35.532Z,0.9
2022-12-12T09:16:35.627Z,1
2022-12-12T09:17:35.683Z,1.1
2022-12-12T09:18:48.398Z,1.1
2022-12-12T09:19:35.764Z,1.4
2022-12-12T09:20:35.837Z,1.5
2022-12-12T09:21:35.877Z,1.3
2022-12-12T09:22:35.875Z,1.3
2022-12-12T09:23:36.008Z,1.3
2022-12-12T09:24:36.018Z,1.4
2022-12-12T09:25:42.772Z,1.3
2022-12-12T09:26:41.194Z,1.4
2022-12-12T09:27:36.171Z,1.4
2022-12-12T09:28:36.684Z,1.3
2022-12-12T09:29:36.383Z,1.4
2022-12-12T09:30:46.405Z,1.4
2022-12-12T09:31:36.585Z,1.3
2022-12-12T09:32:36.602Z,1.3
2022-12-12T09:33:36.587Z,1.4
2022-12-12T09:34:42.904Z,1.3
2022-12-12T09:35:41.682Z,1.1
2022-12-12T09:36:36.745Z,1.1
2022-12-12T09:37:37.114Z,1.4
2022-12-12T09:38:36.816Z,1.5
2022-12-12T09:39:36.898Z,1.3
2022-12-12T09:40:37.181Z,1
2022-12-12T09:41:36.953Z,1.1
2022-12-12T09:42:42.289Z,1.3
2022-12-12T09:43:42.087Z,1.2
2022-12-12T09:44:42.157Z,1.1
2022-12-12T09:45:38.378Z,1.5
2022-12-12T09:46:37.397Z,1.5
2022-12-12T09:47:37.331Z,1.4
2022-12-12T09:48:37.400Z,1.4
2022-12-12T09:49:43.178Z,1.5
2022-12-12T09:50:48.560Z,1.3
2022-12-12T09:51:38.055Z,1.1
2022-12-12T09:52:37.617Z,1
2022-12-12T09:53:37.975Z,1.1
2022-12-12T09:54:37.716Z,1.3
2022-12-12T09:55:37.741Z,1.6
2022-12-12T09:56:42.873Z,1.9
2022-12-12T09:57:37.892Z,2.1
2022-12-12T09:58:40.787Z,2.4
2022-12-12T09:59:38.029Z,2.3
2022-12-12T10:00:38.156Z,2.6
2022-12-12T10:01:38.213Z,2.6
2022-12-12T10:02:38.509Z,2.5
2022-12-12T10:03:38.259Z,2.9
2022-12-12T10:04:38.324Z,3
2022-12-12T10:05:38.367Z,2.9
2022-12-12T10:06:43.394Z,2.5
2022-12-12T10:07:38.488Z,2.5
2022-12-12T10:08:38.512Z,2.6
2022-12-12T10:09:39.145Z,2.3
2022-12-12T10:10:39.706Z,2.4
2022-12-12T10:11:38.914Z,2.6
2022-12-12T10:12:42.032Z,2.2
2022-12-12T10:13:38.787Z,2
2022-12-12T10:14:49.148Z,1.6
2022-12-12T10:15:44.906Z,1.5
2022-12-12T10:16:44.044Z,1.5
2022-12-12T10:17:49.287Z,1.3
2022-12-12T10:18:39.078Z,1
2022-12-12T10:19:40.096Z,1.3
2022-12-12T10:20:39.196Z,1.5
2022-12-12T10:21:42.347Z,1.7
2022-12-12T10:22:39.257Z,1.6
2022-12-12T10:23:39.359Z,1.7
2022-12-12T10:24:39.402Z,2.1
2022-12-12T10:25:39.518Z,2.5
2022-12-12T10:26:39.668Z,2.7
2022-12-12T10:27:44.616Z,2.7
2022-12-12T10:28:39.655Z,2.7
2022-12-12T10:29:41.614Z,2.8
2022-12-12T10:30:39.744Z,3
2022-12-12T10:31:40.297Z,3.3
2022-12-12T10:32:39.915Z,3.3
2022-12-12T10:33:39.975Z,3.2
2022-12-12T10:34:40.026Z,3.3
2022-12-12T10:35:40.090Z,3.4
2022-12-12T10:36:40.145Z,3.5
2022-12-12T10:37:40.572Z,3.5
2022-12-12T10:38:40.268Z,3.8
2022-12-12T10:39:40.324Z,4.3
2022-12-12T10:40:40.819Z,4.3
2022-12-12T10:41:40.971Z,4.5
2022-12-12T10:42:41.238Z,4.2
2022-12-12T10:43:40.720Z,4
2022-12-12T10:44:45.634Z,3.7
2022-12-12T10:45:40.688Z,3.7
2022-12-12T10:46:40.996Z,3.7
2022-12-12T10:47:40.780Z,4.1
2022-12-12T10:48:41.801Z,4.1
2022-12-12T10:49:41.321Z,4.1
2022-12-12T10:50:40.900Z,4
2022-12-12T10:51:40.989Z,4.4
2022-12-12T10:52:41.630Z,4.6
2022-12-12T10:53:41.262Z,4.6
2022-12-12T10:54:41.730Z,4.7
2022-12-12T10:55:41.238Z,4.7
2022-12-12T10:56:41.242Z,4.6
2022-12-12T10:57:41.354Z,4.7
2022-12-12T10:58:41.937Z,5.3
2022-12-12T10:59:41.419Z,5.4
2022-12-12T11:00:41.720Z,5.1
2022-12-12T11:02:41.863Z,4.7
2022-12-12T11:03:41.779Z,4.9
2022-12-12T11:04:41.790Z,4.8
2022-12-12T11:05:41.783Z,4.8
2022-12-12T11:06:41.856Z,4.7
2022-12-12T11:07:41.926Z,4.8
2022-12-12T11:08:43.998Z,4.7
2022-12-12T11:09:42.347Z,4.9
2022-12-12T11:10:42.651Z,4.8
2022-12-12T11:11:43.066Z,4.8
2022-12-12T11:12:55.782Z,5
2022-12-12T11:13:51.545Z,5.1
2022-12-12T11:14:42.322Z,5.1
2022-12-12T11:15:42.543Z,5.3
2022-12-12T11:16:44.719Z,5.3
2022-12-12T11:17:45.594Z,5.2
2022-12-12T11:18:56.307Z,5.3
2022-12-12T11:19:42.615Z,5.3
2022-12-12T11:20:42.638Z,5.4
2022-12-12T11:21:42.942Z,5.5
2022-12-12T11:22:42.787Z,5.4
2022-12-12T11:23:42.857Z,5.8
2022-12-12T11:24:43.160Z,5.7
2022-12-12T11:25:42.976Z,5.6
2022-12-12T11:26:44.020Z,5.3
2022-12-12T11:27:43.093Z,5.3
2022-12-12T11:28:43.549Z,5.5
2022-12-12T11:29:43.235Z,5.4
2022-12-12T11:30:43.331Z,5
2022-12-12T11:31:43.310Z,5.3
2022-12-12T11:32:45.755Z,5.4
2022-12-12T11:33:56.644Z,5.6
2022-12-12T11:35:12.272Z,5.3
2022-12-12T11:36:27.178Z,5.2
2022-12-12T11:37:42.461Z,5.1
2022-12-12T11:38:57.827Z,5.4
2022-12-12T11:40:13.129Z,5.4
2022-12-12T11:41:28.418Z,5.5
2022-12-12T11:42:45.461Z,5.5
2022-12-12T11:44:04.039Z,5.7
2022-12-12T11:44:59.111Z,5.7
2022-12-12T11:45:59.216Z,6
2022-12-12T11:46:59.411Z,5.7
2022-12-12T11:47:59.307Z,5.8
2022-12-12T11:48:59.574Z,5.8
2022-12-12T11:49:59.394Z,5.7
2022-12-12T11:50:59.439Z,5.3
2022-12-12T11:51:59.658Z,5.2
2022-12-12T11:52:59.560Z,5.5
2022-12-12T11:53:59.593Z,5.6
2022-12-12T11:54:59.687Z,5.8
2022-12-12T11:55:59.760Z,5.5
2022-12-12T11:56:59.810Z,5.3
2022-12-12T11:58:03.566Z,5.5
2022-12-12T11:58:59.904Z,5.5
2022-12-12T11:59:59.967Z,5.7
2022-12-12T12:00:59.998Z,5.7
2022-12-12T12:02:00.093Z,5.5
2022-12-12T12:03:00.225Z,5.6
2022-12-12T12:04:00.582Z,5.8
2022-12-12T12:05:00.463Z,6.2
2022-12-12T12:06:00.308Z,5.9
2022-12-12T12:07:00.367Z,5.7
2022-12-12T12:08:00.494Z,5.6
2022-12-12T12:09:00.437Z,5
2022-12-12T12:10:00.493Z,5.1
2022-12-12T12:11:00.583Z,5.2
2022-12-12T12:12:00.590Z,5.5
2022-12-12T12:13:00.666Z,5.7
2022-12-12T12:14:00.733Z,5.9
2022-12-12T12:15:00.856Z,5.7
2022-12-12T12:16:01.288Z,5.7
2022-12-12T12:17:00.982Z,6
2022-12-12T12:18:00.985Z,5.8
2022-12-12T12:19:01.277Z,5.6
2022-12-12T12:20:01.317Z,5.8
2022-12-12T12:21:01.176Z,6.1
2022-12-12T12:22:01.195Z,5.7
2022-12-12T12:23:01.282Z,5.7
2022-12-12T12:24:01.352Z,5.4
2022-12-12T12:25:01.371Z,5.4
2022-12-12T12:26:01.442Z,5.3
2022-12-12T12:27:01.634Z,5.6
2022-12-12T12:28:01.570Z,5.4
2022-12-12T12:29:01.599Z,5.8
2022-12-12T12:30:01.815Z,5.8
2022-12-12T12:31:01.797Z,5.7
2022-12-12T12:32:01.809Z,5.8
2022-12-12T12:33:01.817Z,6.1
2022-12-12T12:34:01.890Z,5.8
2022-12-12T12:35:02.058Z,5.7
2022-12-12T12:36:02.014Z,5.5
2022-12-12T12:37:02.100Z,5.3
2022-12-12T12:38:02.103Z,5.6
2022-12-12T12:39:02.148Z,5.5
2022-12-12T12:40:02.202Z,5.6
2022-12-12T12:41:02.297Z,5.3
2022-12-12T12:42:02.345Z,5.1
2022-12-12T12:43:02.423Z,5.3
2022-12-12T12:44:12.744Z,5.5
2022-12-12T12:45:08.212Z,5.6
2022-12-12T12:46:08.290Z,5.5
2022-12-12T12:47:08.621Z,5.4
2022-12-12T12:48:10.654Z,5.8
2022-12-12T12:49:08.447Z,5.6
2022-12-12T12:50:08.492Z,5.3
2022-12-12T12:51:08.561Z,5.2
2022-12-12T12:52:08.658Z,5.3
2022-12-12T12:53:08.633Z,5.3
2022-12-12T12:54:08.785Z,5.2
2022-12-12T12:56:14.795Z,4.9
2022-12-12T12:57:08.911Z,4.8
2022-12-12T12:58:08.932Z,5
2022-12-12T12:59:09.019Z,5.3
2022-12-12T13:00:14.228Z,5
2022-12-12T13:01:14.165Z,4.9
2022-12-12T13:02:09.192Z,4.7
2022-12-12T13:03:09.294Z,4.5
2022-12-12T13:04:09.263Z,4.6
2022-12-12T13:05:09.297Z,4.7
2022-12-12T13:06:09.384Z,4.5
2022-12-12T13:07:09.442Z,4.4
2022-12-12T13:08:09.487Z,4.8
2022-12-12T13:09:09.585Z,4.8
2022-12-12T13:10:09.596Z,4.8
2022-12-12T13:11:10.017Z,4.5
2022-12-12T13:12:09.741Z,4.3
2022-12-12T13:13:09.829Z,4.5
2022-12-12T13:14:10.057Z,4.5
2022-12-12T13:15:10.588Z,4.5
2022-12-12T13:16:10.266Z,4.5
2022-12-12T13:17:10.042Z,4.6
2022-12-12T13:18:12.137Z,4.3
2022-12-12T13:19:13.202Z,4.3
2022-12-12T13:20:21.358Z,4.2
2022-12-12T13:21:10.244Z,4
2022-12-12T13:22:10.309Z,4
2022-12-12T13:23:10.363Z,4
2022-12-12T13:24:10.394Z,4
2022-12-12T13:25:11.294Z,3.9
2022-12-12T13:26:10.519Z,3.9
2022-12-12T13:27:14.872Z,3.7
2022-12-12T13:28:10.626Z,3.5
2022-12-12T13:29:10.764Z,3.5
2022-12-12T13:30:10.929Z,3.5
2022-12-12T13:31:13.123Z,3.4
2022-12-12T13:32:10.924Z,3.4
2022-12-12T13:33:10.974Z,3.5
2022-12-12T13:34:11.105Z,3.5
2022-12-12T13:35:11.295Z,3.5
2022-12-12T13:36:16.631Z,3.5
2022-12-12T13:37:11.889Z,3.7
2022-12-12T13:38:15.490Z,3.5
2022-12-12T13:39:11.509Z,3.3
2022-12-12T13:40:16.498Z,3.3
2022-12-12T13:41:11.444Z,3.1
2022-12-12T13:42:11.500Z,3.2
2022-12-12T13:43:11.570Z,3.1
2022-12-12T13:44:11.673Z,3.1
2022-12-12T13:45:11.843Z,3
2022-12-12T13:46:16.937Z,3.2
2022-12-12T13:47:11.804Z,3.1
2022-12-12T13:48:12.070Z,3
2022-12-12T13:49:17.498Z,3.1
2022-12-12T13:50:21.623Z,3
2022-12-12T13:51:12.561Z,2.9
2022-12-12T13:52:12.059Z,2.8
2022-12-12T13:53:12.115Z,2.8
2022-12-12T13:54:13.977Z,2.8
2022-12-12T13:55:12.350Z,2.8
2022-12-12T13:56:13.824Z,2.7
2022-12-12T13:57:12.357Z,2.8
2022-12-12T13:58:12.406Z,2.8
2022-12-12T13:59:12.489Z,2.8
2022-12-12T14:00:12.929Z,2.7
2022-12-12T14:01:12.652Z,2.5
2022-12-12T14:02:12.677Z,2.6
2022-12-12T14:03:12.809Z,2.7
2022-12-12T14:04:12.787Z,2.6
2022-12-12T14:05:12.897Z,2.4
2022-12-12T14:06:13.039Z,2.5
2022-12-12T14:07:13.013Z,2.3
2022-12-12T14:08:13.479Z,2.3
2022-12-12T14:09:13.096Z,2.3
2022-12-12T14:10:13.269Z,2.4
2022-12-12T14:11:16.612Z,2.4